sensor_id;sensor_type;location;lat;lon;timestamp;P1;durP1;ratioP1;P2;durP2;ratioP2
8887;SDS011;4480;52.370;9.748;2023-10-08T00:00:42;0.80;;;0.77;;
8887;SDS011;4480;52.370;9.748;2023-10-08T00:03:13;0.80;;;0.80;;
8887;SDS011;4480;52.370;9.748;2023-10-08T00:05:40;1.10;;;0.70;;
8887;SDS011;4480;52.370;9.748;2023-10-08T00:08:07;1.33;;;0.50;;
8887;SDS011;4480;52.370;9.748;2023-10-08T00:10:35;0.70;;;0.50;;
8887;SDS011;4480;52.370;9.748;2023-10-08T00:13:05;0.50;;;0.50;;
8887;SDS011;4480;52.370;9.748;2023-10-08T00:15:33;0.53;;;0.40;;
8887;SDS011;4480;52.370;9.748;2023-10-08T00:18:01;0.70;;;0.50;;
8887;SDS011;4480;52.370;9.748;2023-10-08T00:20:31;0.90;;;0.50;;
8887;SDS011;4480;52.370;9.748;2023-10-08T00:23:07;0.70;;;0.50;;
8887;SDS011;4480;52.370;9.748;2023-10-08T00:25:34;1.07;;;0.40;;
8887;SDS011;4480;52.370;9.748;2023-10-08T00:28:05;0.60;;;0.50;;
8887;SDS011;4480;52.370;9.748;2023-10-08T00:30:37;0.70;;;0.53;;
8887;SDS011;4480;52.370;9.748;2023-10-08T00:33:05;0.60;;;0.40;;
8887;SDS011;4480;52.370;9.748;2023-10-08T00:35:37;0.70;;;0.40;;
8887;SDS011;4480;52.370;9.748;2023-10-08T00:38:06;0.60;;;0.50;;
8887;SDS011;4480;52.370;9.748;2023-10-08T00:40:40;0.50;;;0.37;;
8887;SDS011;4480;52.370;9.748;2023-10-08T00:43:10;1.13;;;0.60;;
8887;SDS011;4480;52.370;9.748;2023-10-08T00:45:52;0.50;;;0.40;;
8887;SDS011;4480;52.370;9.748;2023-10-08T00:48:19;0.70;;;0.40;;
8887;SDS011;4480;52.370;9.748;2023-10-08T00:50:54;1.17;;;0.70;;
8887;SDS011;4480;52.370;9.748;2023-10-08T00:53:34;0.50;;;0.37;;
8887;SDS011;4480;52.370;9.748;2023-10-08T00:56:05;0.77;;;0.40;;
8887;SDS011;4480;52.370;9.748;2023-10-08T00:58:37;0.70;;;0.50;;
8887;SDS011;4480;52.370;9.748;2023-10-08T01:01:05;0.73;;;0.50;;
8887;SDS011;4480;52.370;9.748;2023-10-08T01:03:35;0.50;;;0.40;;
8887;SDS011;4480;52.370;9.748;2023-10-08T01:06:05;0.60;;;0.57;;
8887;SDS011;4480;52.370;9.748;2023-10-08T01:08:35;0.57;;;0.50;;
8887;SDS011;4480;52.370;9.748;2023-10-08T01:11:16;0.60;;;0.53;;
8887;SDS011;4480;52.370;9.748;2023-10-08T01:13:43;0.80;;;0.60;;
8887;SDS011;4480;52.370;9.748;2023-10-08T01:16:11;1.93;;;0.80;;
8887;SDS011;4480;52.370;9.748;2023-10-08T01:18:39;1.40;;;0.90;;
8887;SDS011;4480;52.370;9.748;2023-10-08T01:21:17;4.80;;;1.37;;
8887;SDS011;4480;52.370;9.748;2023-10-08T01:24:00;3.70;;;1.10;;
8887;SDS011;4480;52.370;9.748;2023-10-08T01:26:30;1.33;;;0.70;;
8887;SDS011;4480;52.370;9.748;2023-10-08T01:28:58;2.33;;;0.80;;
8887;SDS011;4480;52.370;9.748;2023-10-08T01:31:28;5.00;;;1.07;;
8887;SDS011;4480;52.370;9.748;2023-10-08T01:33:55;3.90;;;1.00;;
8887;SDS011;4480;52.370;9.748;2023-10-08T01:36:22;1.97;;;0.90;;
8887;SDS011;4480;52.370;9.748;2023-10-08T01:38:50;2.33;;;1.00;;
8887;SDS011;4480;52.370;9.748;2023-10-08T01:41:20;2.87;;;0.97;;
8887;SDS011;4480;52.370;9.748;2023-10-08T01:43:55;1.00;;;0.80;;
8887;SDS011;4480;52.370;9.748;2023-10-08T01:46:23;2.17;;;0.90;;
8887;SDS011;4480;52.370;9.748;2023-10-08T01:48:51;3.67;;;1.87;;
8887;SDS011;4480;52.370;9.748;2023-10-08T01:51:28;2.70;;;1.20;;
8887;SDS011;4480;52.370;9.748;2023-10-08T01:54:02;1.33;;;1.23;;
8887;SDS011;4480;52.370;9.748;2023-10-08T01:56:36;3.07;;;1.00;;
8887;SDS011;4480;52.370;9.748;2023-10-08T01:59:06;3.43;;;0.80;;
8887;SDS011;4480;52.370;9.748;2023-10-08T02:01:33;4.07;;;1.23;;
8887;SDS011;4480;52.370;9.748;2023-10-08T02:04:00;4.70;;;1.10;;
8887;SDS011;4480;52.370;9.748;2023-10-08T02:06:28;1.40;;;1.07;;
8887;SDS011;4480;52.370;9.748;2023-10-08T02:08:56;3.60;;;0.93;;
8887;SDS011;4480;52.370;9.748;2023-10-08T02:11:23;3.10;;;1.20;;
8887;SDS011;4480;52.370;9.748;2023-10-08T02:13:54;3.70;;;1.20;;
8887;SDS011;4480;52.370;9.748;2023-10-08T02:16:21;5.30;;;1.50;;
8887;SDS011;4480;52.370;9.748;2023-10-08T02:18:47;3.37;;;1.50;;
8887;SDS011;4480;52.370;9.748;2023-10-08T02:21:16;4.63;;;1.40;;
8887;SDS011;4480;52.370;9.748;2023-10-08T02:23:43;3.10;;;1.43;;
8887;SDS011;4480;52.370;9.748;2023-10-08T02:26:09;1.53;;;1.10;;
8887;SDS011;4480;52.370;9.748;2023-10-08T02:28:37;1.17;;;0.87;;
8887;SDS011;4480;52.370;9.748;2023-10-08T02:31:05;3.03;;;1.43;;
8887;SDS011;4480;52.370;9.748;2023-10-08T02:33:33;2.07;;;1.53;;
8887;SDS011;4480;52.370;9.748;2023-10-08T02:36:02;4.10;;;1.33;;
8887;SDS011;4480;52.370;9.748;2023-10-08T02:38:29;3.30;;;1.20;;
8887;SDS011;4480;52.370;9.748;2023-10-08T02:41:02;3.17;;;0.97;;
8887;SDS011;4480;52.370;9.748;2023-10-08T02:43:31;1.60;;;1.20;;
8887;SDS011;4480;52.370;9.748;2023-10-08T02:45:59;3.13;;;1.60;;
8887;SDS011;4480;52.370;9.748;2023-10-08T02:48:27;1.90;;;1.30;;
8887;SDS011;4480;52.370;9.748;2023-10-08T02:50:55;2.50;;;1.20;;
8887;SDS011;4480;52.370;9.748;2023-10-08T02:53:32;3.53;;;1.40;;
8887;SDS011;4480;52.370;9.748;2023-10-08T02:55:59;7.00;;;1.80;;
8887;SDS011;4480;52.370;9.748;2023-10-08T02:58:25;1.40;;;0.90;;
8887;SDS011;4480;52.370;9.748;2023-10-08T03:00:53;2.27;;;1.00;;
8887;SDS011;4480;52.370;9.748;2023-10-08T03:03:19;2.40;;;1.00;;
8887;SDS011;4480;52.370;9.748;2023-10-08T03:05:51;2.93;;;1.10;;
8887;SDS011;4480;52.370;9.748;2023-10-08T03:08:21;2.00;;;1.17;;
8887;SDS011;4480;52.370;9.748;2023-10-08T03:10:49;5.57;;;2.17;;
8887;SDS011;4480;52.370;9.748;2023-10-08T03:13:20;1.83;;;1.00;;
8887;SDS011;4480;52.370;9.748;2023-10-08T03:15:47;2.60;;;0.83;;
8887;SDS011;4480;52.370;9.748;2023-10-08T03:18:32;2.47;;;1.17;;
8887;SDS011;4480;52.370;9.748;2023-10-08T03:21:03;6.10;;;1.90;;
8887;SDS011;4480;52.370;9.748;2023-10-08T03:23:38;1.50;;;0.90;;
8887;SDS011;4480;52.370;9.748;2023-10-08T03:26:12;3.30;;;1.13;;
8887;SDS011;4480;52.370;9.748;2023-10-08T03:28:58;2.60;;;0.90;;
8887;SDS011;4480;52.370;9.748;2023-10-08T03:31:30;1.80;;;1.00;;
8887;SDS011;4480;52.370;9.748;2023-10-08T03:34:15;3.53;;;1.23;;
8887;SDS011;4480;52.370;9.748;2023-10-08T03:36:46;2.33;;;1.20;;
8887;SDS011;4480;52.370;9.748;2023-10-08T03:39:14;2.63;;;1.07;;
8887;SDS011;4480;52.370;9.748;2023-10-08T03:41:45;2.13;;;1.00;;
8887;SDS011;4480;52.370;9.748;2023-10-08T03:44:24;2.80;;;1.70;;
8887;SDS011;4480;52.370;9.748;2023-10-08T03:46:54;3.33;;;1.13;;
8887;SDS011;4480;52.370;9.748;2023-10-08T03:49:22;3.10;;;0.80;;
8887;SDS011;4480;52.370;9.748;2023-10-08T03:51:53;1.50;;;0.80;;
8887;SDS011;4480;52.370;9.748;2023-10-08T03:54:22;1.53;;;0.83;;
8887;SDS011;4480;52.370;9.748;2023-10-08T03:56:59;2.97;;;0.90;;
8887;SDS011;4480;52.370;9.748;2023-10-08T03:59:29;6.60;;;1.20;;
8887;SDS011;4480;52.370;9.748;2023-10-08T04:01:56;4.47;;;1.13;;
8887;SDS011;4480;52.370;9.748;2023-10-08T04:04:34;4.03;;;1.00;;
8887;SDS011;4480;52.370;9.748;2023-10-08T04:07:17;0.90;;;0.67;;
8887;SDS011;4480;52.370;9.748;2023-10-08T04:12:19;3.20;;;1.07;;
8887;SDS011;4480;52.370;9.748;2023-10-08T04:14:46;3.57;;;1.17;;
8887;SDS011;4480;52.370;9.748;2023-10-08T04:17:12;2.10;;;1.00;;
8887;SDS011;4480;52.370;9.748;2023-10-08T04:19:47;2.47;;;1.20;;
8887;SDS011;4480;52.370;9.748;2023-10-08T04:22:14;3.13;;;0.90;;
8887;SDS011;4480;52.370;9.748;2023-10-08T04:24:43;1.80;;;1.23;;
8887;SDS011;4480;52.370;9.748;2023-10-08T04:27:10;2.93;;;1.30;;
8887;SDS011;4480;52.370;9.748;2023-10-08T04:29:41;3.97;;;1.30;;
8887;SDS011;4480;52.370;9.748;2023-10-08T04:32:08;3.80;;;1.33;;
8887;SDS011;4480;52.370;9.748;2023-10-08T04:34:37;2.03;;;1.20;;
8887;SDS011;4480;52.370;9.748;2023-10-08T04:37:09;1.20;;;1.00;;
8887;SDS011;4480;52.370;9.748;2023-10-08T04:39:37;2.20;;;1.17;;
8887;SDS011;4480;52.370;9.748;2023-10-08T04:42:05;5.47;;;1.20;;
8887;SDS011;4480;52.370;9.748;2023-10-08T04:44:35;3.63;;;1.40;;
8887;SDS011;4480;52.370;9.748;2023-10-08T04:47:05;4.20;;;1.40;;
8887;SDS011;4480;52.370;9.748;2023-10-08T04:49:52;1.77;;;1.00;;
8887;SDS011;4480;52.370;9.748;2023-10-08T04:52:21;2.40;;;0.80;;
8887;SDS011;4480;52.370;9.748;2023-10-08T04:54:50;3.23;;;1.37;;
8887;SDS011;4480;52.370;9.748;2023-10-08T04:57:19;4.10;;;1.20;;
8887;SDS011;4480;52.370;9.748;2023-10-08T04:59:48;3.00;;;1.20;;
8887;SDS011;4480;52.370;9.748;2023-10-08T05:02:17;5.60;;;1.50;;
8887;SDS011;4480;52.370;9.748;2023-10-08T05:04:47;3.93;;;1.30;;
8887;SDS011;4480;52.370;9.748;2023-10-08T05:07:32;2.77;;;1.50;;
8887;SDS011;4480;52.370;9.748;2023-10-08T05:10:22;3.77;;;1.60;;
8887;SDS011;4480;52.370;9.748;2023-10-08T05:13:06;2.40;;;1.23;;
8887;SDS011;4480;52.370;9.748;2023-10-08T05:15:41;4.00;;;1.07;;
8887;SDS011;4480;52.370;9.748;2023-10-08T05:18:28;3.27;;;1.40;;
8887;SDS011;4480;52.370;9.748;2023-10-08T05:21:19;2.17;;;1.20;;
8887;SDS011;4480;52.370;9.748;2023-10-08T05:23:53;5.90;;;1.40;;
8887;SDS011;4480;52.370;9.748;2023-10-08T05:26:33;4.07;;;1.50;;
8887;SDS011;4480;52.370;9.748;2023-10-08T05:29:14;3.00;;;1.30;;
8887;SDS011;4480;52.370;9.748;2023-10-08T05:32:10;3.90;;;1.20;;
8887;SDS011;4480;52.370;9.748;2023-10-08T05:34:55;4.23;;;1.60;;
8887;SDS011;4480;52.370;9.748;2023-10-08T05:37:42;3.50;;;1.80;;
8887;SDS011;4480;52.370;9.748;2023-10-08T05:40:12;4.43;;;1.83;;
8887;SDS011;4480;52.370;9.748;2023-10-08T05:43:02;5.67;;;1.57;;
8887;SDS011;4480;52.370;9.748;2023-10-08T05:45:47;2.43;;;1.30;;
8887;SDS011;4480;52.370;9.748;2023-10-08T05:48:38;5.70;;;1.50;;
8887;SDS011;4480;52.370;9.748;2023-10-08T05:51:11;2.83;;;1.30;;
8887;SDS011;4480;52.370;9.748;2023-10-08T05:53:49;2.33;;;1.40;;
8887;SDS011;4480;52.370;9.748;2023-10-08T05:56:21;3.27;;;1.73;;
8887;SDS011;4480;52.370;9.748;2023-10-08T05:58:54;7.37;;;1.50;;
8887;SDS011;4480;52.370;9.748;2023-10-08T06:01:40;5.20;;;2.00;;
8887;SDS011;4480;52.370;9.748;2023-10-08T06:04:11;4.03;;;1.93;;
8887;SDS011;4480;52.370;9.748;2023-10-08T06:07:08;7.73;;;1.60;;
8887;SDS011;4480;52.370;9.748;2023-10-08T06:09:58;5.37;;;1.67;;
8887;SDS011;4480;52.370;9.748;2023-10-08T06:12:27;6.83;;;2.73;;
8887;SDS011;4480;52.370;9.748;2023-10-08T06:14:56;4.33;;;1.70;;
8887;SDS011;4480;52.370;9.748;2023-10-08T06:17:37;4.83;;;1.77;;
8887;SDS011;4480;52.370;9.748;2023-10-08T06:20:22;2.50;;;1.70;;
8887;SDS011;4480;52.370;9.748;2023-10-08T06:22:53;2.77;;;1.70;;
8887;SDS011;4480;52.370;9.748;2023-10-08T06:25:26;4.10;;;2.00;;
8887;SDS011;4480;52.370;9.748;2023-10-08T06:27:53;2.30;;;1.40;;
8887;SDS011;4480;52.370;9.748;2023-10-08T06:30:22;4.97;;;1.87;;
8887;SDS011;4480;52.370;9.748;2023-10-08T06:32:54;2.77;;;1.90;;
8887;SDS011;4480;52.370;9.748;2023-10-08T06:35:21;5.03;;;2.10;;
8887;SDS011;4480;52.370;9.748;2023-10-08T06:37:50;4.90;;;2.20;;
8887;SDS011;4480;52.370;9.748;2023-10-08T06:40:22;3.77;;;2.30;;
8887;SDS011;4480;52.370;9.748;2023-10-08T06:43:07;3.67;;;2.00;;
8887;SDS011;4480;52.370;9.748;2023-10-08T06:45:39;3.63;;;2.10;;
8887;SDS011;4480;52.370;9.748;2023-10-08T06:48:07;3.97;;;2.03;;
8887;SDS011;4480;52.370;9.748;2023-10-08T06:50:34;6.00;;;2.67;;
8887;SDS011;4480;52.370;9.748;2023-10-08T06:53:01;5.30;;;2.40;;
8887;SDS011;4480;52.370;9.748;2023-10-08T06:55:33;6.60;;;2.30;;
8887;SDS011;4480;52.370;9.748;2023-10-08T06:58:00;6.87;;;2.50;;
8887;SDS011;4480;52.370;9.748;2023-10-08T07:00:30;5.30;;;2.40;;
8887;SDS011;4480;52.370;9.748;2023-10-08T07:03:05;5.60;;;2.63;;
8887;SDS011;4480;52.370;9.748;2023-10-08T07:05:35;3.93;;;2.40;;
8887;SDS011;4480;52.370;9.748;2023-10-08T07:08:06;3.80;;;2.70;;
8887;SDS011;4480;52.370;9.748;2023-10-08T07:10:35;2.97;;;2.13;;
8887;SDS011;4480;52.370;9.748;2023-10-08T07:13:02;3.77;;;2.50;;
8887;SDS011;4480;52.370;9.748;2023-10-08T07:15:33;2.73;;;2.17;;
8887;SDS011;4480;52.370;9.748;2023-10-08T07:18:03;4.93;;;2.63;;
8887;SDS011;4480;52.370;9.748;2023-10-08T07:20:37;3.70;;;2.70;;
8887;SDS011;4480;52.370;9.748;2023-10-08T07:23:07;2.60;;;2.00;;
8887;SDS011;4480;52.370;9.748;2023-10-08T07:25:45;2.57;;;2.30;;
8887;SDS011;4480;52.370;9.748;2023-10-08T07:28:17;5.43;;;2.53;;
8887;SDS011;4480;52.370;9.748;2023-10-08T07:30:44;3.87;;;2.87;;
8887;SDS011;4480;52.370;9.748;2023-10-08T07:33:13;5.20;;;2.57;;
8887;SDS011;4480;52.370;9.748;2023-10-08T07:35:43;3.77;;;2.43;;
8887;SDS011;4480;52.370;9.748;2023-10-08T07:38:17;3.13;;;2.47;;
8887;SDS011;4480;52.370;9.748;2023-10-08T07:40:48;3.90;;;2.73;;
8887;SDS011;4480;52.370;9.748;2023-10-08T07:43:15;5.00;;;2.30;;
8887;SDS011;4480;52.370;9.748;2023-10-08T07:45:45;4.43;;;2.57;;
8887;SDS011;4480;52.370;9.748;2023-10-08T07:48:12;3.20;;;2.40;;
8887;SDS011;4480;52.370;9.748;2023-10-08T07:50:41;7.30;;;2.73;;
8887;SDS011;4480;52.370;9.748;2023-10-08T07:53:11;5.00;;;3.73;;
8887;SDS011;4480;52.370;9.748;2023-10-08T07:55:44;4.47;;;3.50;;
8887;SDS011;4480;52.370;9.748;2023-10-08T07:58:14;4.80;;;3.50;;
8887;SDS011;4480;52.370;9.748;2023-10-08T08:00:41;4.43;;;3.80;;
8887;SDS011;4480;52.370;9.748;2023-10-08T08:03:16;6.37;;;3.43;;
8887;SDS011;4480;52.370;9.748;2023-10-08T08:05:44;4.53;;;3.60;;
8887;SDS011;4480;52.370;9.748;2023-10-08T08:08:11;7.23;;;4.00;;
8887;SDS011;4480;52.370;9.748;2023-10-08T08:10:42;5.30;;;4.13;;
8887;SDS011;4480;52.370;9.748;2023-10-08T08:13:10;4.67;;;3.27;;
8887;SDS011;4480;52.370;9.748;2023-10-08T08:15:39;6.90;;;4.37;;
8887;SDS011;4480;52.370;9.748;2023-10-08T08:18:08;5.00;;;4.27;;
8887;SDS011;4480;52.370;9.748;2023-10-08T08:20:47;4.93;;;4.30;;
8887;SDS011;4480;52.370;9.748;2023-10-08T08:23:14;4.27;;;3.63;;
8887;SDS011;4480;52.370;9.748;2023-10-08T08:25:43;4.10;;;3.17;;
8887;SDS011;4480;52.370;9.748;2023-10-08T08:28:21;5.03;;;3.00;;
8887;SDS011;4480;52.370;9.748;2023-10-08T08:30:51;6.00;;;3.07;;
8887;SDS011;4480;52.370;9.748;2023-10-08T08:33:20;5.13;;;2.83;;
8887;SDS011;4480;52.370;9.748;2023-10-08T08:35:56;6.00;;;3.53;;
8887;SDS011;4480;52.370;9.748;2023-10-08T08:38:24;4.83;;;3.10;;
8887;SDS011;4480;52.370;9.748;2023-10-08T08:40:52;7.10;;;2.97;;
8887;SDS011;4480;52.370;9.748;2023-10-08T08:43:31;6.80;;;2.90;;
8887;SDS011;4480;52.370;9.748;2023-10-08T08:46:02;6.60;;;2.53;;
8887;SDS011;4480;52.370;9.748;2023-10-08T08:48:32;3.50;;;2.50;;
8887;SDS011;4480;52.370;9.748;2023-10-08T08:51:01;9.70;;;3.27;;
8887;SDS011;4480;52.370;9.748;2023-10-08T08:53:28;4.40;;;2.97;;
8887;SDS011;4480;52.370;9.748;2023-10-08T08:55:55;4.33;;;3.47;;
8887;SDS011;4480;52.370;9.748;2023-10-08T08:58:23;4.13;;;3.03;;
8887;SDS011;4480;52.370;9.748;2023-10-08T09:00:51;7.50;;;3.60;;
8887;SDS011;4480;52.370;9.748;2023-10-08T09:03:20;4.47;;;2.90;;
8887;SDS011;4480;52.370;9.748;2023-10-08T09:05:55;6.40;;;2.70;;
8887;SDS011;4480;52.370;9.748;2023-10-08T09:08:22;7.43;;;2.13;;
8887;SDS011;4480;52.370;9.748;2023-10-08T09:10:49;7.03;;;3.13;;
8887;SDS011;4480;52.370;9.748;2023-10-08T09:13:21;6.33;;;2.60;;
8887;SDS011;4480;52.370;9.748;2023-10-08T09:15:49;4.17;;;3.10;;
8887;SDS011;4480;52.370;9.748;2023-10-08T09:18:22;6.87;;;2.80;;
8887;SDS011;4480;52.370;9.748;2023-10-08T09:20:52;4.00;;;2.60;;
8887;SDS011;4480;52.370;9.748;2023-10-08T09:23:20;5.90;;;3.20;;
8887;SDS011;4480;52.370;9.748;2023-10-08T09:25:48;4.03;;;3.03;;
8887;SDS011;4480;52.370;9.748;2023-10-08T09:28:17;4.53;;;3.23;;
8887;SDS011;4480;52.370;9.748;2023-10-08T09:30:44;4.60;;;3.23;;
8887;SDS011;4480;52.370;9.748;2023-10-08T09:33:13;7.63;;;2.30;;
8887;SDS011;4480;52.370;9.748;2023-10-08T09:35:42;5.43;;;2.37;;
8887;SDS011;4480;52.370;9.748;2023-10-08T09:38:09;2.83;;;1.50;;
8887;SDS011;4480;52.370;9.748;2023-10-08T09:40:36;5.43;;;2.17;;
8887;SDS011;4480;52.370;9.748;2023-10-08T09:43:04;6.93;;;2.33;;
8887;SDS011;4480;52.370;9.748;2023-10-08T09:45:33;7.47;;;2.40;;
8887;SDS011;4480;52.370;9.748;2023-10-08T09:48:01;3.50;;;2.73;;
8887;SDS011;4480;52.370;9.748;2023-10-08T09:50:32;4.40;;;2.10;;
8887;SDS011;4480;52.370;9.748;2023-10-08T09:53:06;5.77;;;2.13;;
8887;SDS011;4480;52.370;9.748;2023-10-08T09:55:40;3.90;;;1.97;;
8887;SDS011;4480;52.370;9.748;2023-10-08T09:58:10;4.83;;;2.10;;
8887;SDS011;4480;52.370;9.748;2023-10-08T10:00:39;6.10;;;1.80;;
8887;SDS011;4480;52.370;9.748;2023-10-08T10:03:09;8.80;;;3.07;;
8887;SDS011;4480;52.370;9.748;2023-10-08T10:05:37;3.60;;;1.83;;
8887;SDS011;4480;52.370;9.748;2023-10-08T10:08:07;5.63;;;2.10;;
8887;SDS011;4480;52.370;9.748;2023-10-08T10:10:35;4.57;;;1.77;;
8887;SDS011;4480;52.370;9.748;2023-10-08T10:13:04;11.63;;;1.77;;
8887;SDS011;4480;52.370;9.748;2023-10-08T10:15:33;3.70;;;1.47;;
8887;SDS011;4480;52.370;9.748;2023-10-08T10:18:08;5.60;;;1.40;;
8887;SDS011;4480;52.370;9.748;2023-10-08T10:20:39;5.40;;;1.50;;
8887;SDS011;4480;52.370;9.748;2023-10-08T10:26:04;3.80;;;1.50;;
8887;SDS011;4480;52.370;9.748;2023-10-08T10:31:47;3.33;;;1.50;;
8887;SDS011;4480;52.370;9.748;2023-10-08T10:34:17;7.13;;;1.20;;
8887;SDS011;4480;52.370;9.748;2023-10-08T10:36:45;4.47;;;1.80;;
8887;SDS011;4480;52.370;9.748;2023-10-08T10:39:16;4.17;;;1.40;;
8887;SDS011;4480;52.370;9.748;2023-10-08T10:41:51;7.23;;;2.00;;
8887;SDS011;4480;52.370;9.748;2023-10-08T10:44:22;3.90;;;1.63;;
8887;SDS011;4480;52.370;9.748;2023-10-08T10:46:49;3.57;;;1.77;;
8887;SDS011;4480;52.370;9.748;2023-10-08T10:49:16;3.00;;;1.50;;
8887;SDS011;4480;52.370;9.748;2023-10-08T10:51:44;6.60;;;1.60;;
8887;SDS011;4480;52.370;9.748;2023-10-08T10:54:12;4.23;;;1.50;;
8887;SDS011;4480;52.370;9.748;2023-10-08T10:56:47;8.23;;;2.90;;
8887;SDS011;4480;52.370;9.748;2023-10-08T10:59:28;3.03;;;1.60;;
8887;SDS011;4480;52.370;9.748;2023-10-08T11:02:02;3.60;;;1.73;;
8887;SDS011;4480;52.370;9.748;2023-10-08T11:04:33;4.47;;;1.70;;
8887;SDS011;4480;52.370;9.748;2023-10-08T11:07:12;3.80;;;1.57;;
8887;SDS011;4480;52.370;9.748;2023-10-08T11:09:41;3.10;;;1.50;;
8887;SDS011;4480;52.370;9.748;2023-10-08T11:12:12;2.30;;;1.43;;
8887;SDS011;4480;52.370;9.748;2023-10-08T11:14:45;6.00;;;1.93;;
8887;SDS011;4480;52.370;9.748;2023-10-08T11:17:13;3.97;;;1.27;;
8887;SDS011;4480;52.370;9.748;2023-10-08T11:19:41;3.40;;;1.63;;
8887;SDS011;4480;52.370;9.748;2023-10-08T11:22:11;7.40;;;1.73;;
8887;SDS011;4480;52.370;9.748;2023-10-08T11:24:41;6.20;;;1.87;;
8887;SDS011;4480;52.370;9.748;2023-10-08T11:27:14;4.23;;;1.67;;
8887;SDS011;4480;52.370;9.748;2023-10-08T11:29:53;2.00;;;1.43;;
8887;SDS011;4480;52.370;9.748;2023-10-08T11:32:23;4.83;;;1.53;;
8887;SDS011;4480;52.370;9.748;2023-10-08T11:34:54;3.30;;;1.47;;
8887;SDS011;4480;52.370;9.748;2023-10-08T11:37:27;5.27;;;1.37;;
8887;SDS011;4480;52.370;9.748;2023-10-08T11:39:54;3.37;;;1.40;;
8887;SDS011;4480;52.370;9.748;2023-10-08T11:42:24;3.50;;;1.40;;
8887;SDS011;4480;52.370;9.748;2023-10-08T11:45:09;6.43;;;1.90;;
8887;SDS011;4480;52.370;9.748;2023-10-08T11:47:49;3.60;;;1.90;;
8887;SDS011;4480;52.370;9.748;2023-10-08T11:50:22;5.47;;;1.60;;
8887;SDS011;4480;52.370;9.748;2023-10-08T11:52:55;2.10;;;1.50;;
8887;SDS011;4480;52.370;9.748;2023-10-08T11:55:26;5.47;;;1.40;;
8887;SDS011;4480;52.370;9.748;2023-10-08T11:57:55;3.97;;;1.63;;
8887;SDS011;4480;52.370;9.748;2023-10-08T12:00:22;4.23;;;1.70;;
8887;SDS011;4480;52.370;9.748;2023-10-08T12:02:50;2.57;;;1.23;;
8887;SDS011;4480;52.370;9.748;2023-10-08T12:05:19;3.40;;;1.63;;
8887;SDS011;4480;52.370;9.748;2023-10-08T12:07:48;4.10;;;1.73;;
8887;SDS011;4480;52.370;9.748;2023-10-08T12:10:17;5.30;;;1.90;;
8887;SDS011;4480;52.370;9.748;2023-10-08T12:12:47;2.97;;;1.70;;
8887;SDS011;4480;52.370;9.748;2023-10-08T12:15:16;7.13;;;2.03;;
8887;SDS011;4480;52.370;9.748;2023-10-08T12:17:45;6.20;;;1.63;;
8887;SDS011;4480;52.370;9.748;2023-10-08T12:20:33;4.37;;;1.90;;
8887;SDS011;4480;52.370;9.748;2023-10-08T12:23:02;4.77;;;2.10;;
8887;SDS011;4480;52.370;9.748;2023-10-08T12:25:29;3.83;;;1.70;;
8887;SDS011;4480;52.370;9.748;2023-10-08T12:27:57;3.13;;;1.27;;
8887;SDS011;4480;52.370;9.748;2023-10-08T12:30:28;2.23;;;1.50;;
8887;SDS011;4480;52.370;9.748;2023-10-08T12:32:56;10.80;;;2.00;;
8887;SDS011;4480;52.370;9.748;2023-10-08T12:35:24;4.47;;;1.40;;
8887;SDS011;4480;52.370;9.748;2023-10-08T12:37:52;4.53;;;2.23;;
8887;SDS011;4480;52.370;9.748;2023-10-08T12:40:19;3.70;;;1.70;;
8887;SDS011;4480;52.370;9.748;2023-10-08T12:42:49;2.23;;;1.50;;
8887;SDS011;4480;52.370;9.748;2023-10-08T12:45:19;6.83;;;1.90;;
8887;SDS011;4480;52.370;9.748;2023-10-08T12:47:48;3.77;;;1.50;;
8887;SDS011;4480;52.370;9.748;2023-10-08T12:50:16;5.03;;;2.30;;
8887;SDS011;4480;52.370;9.748;2023-10-08T12:52:48;2.60;;;1.50;;
8887;SDS011;4480;52.370;9.748;2023-10-08T12:55:20;2.90;;;1.37;;
8887;SDS011;4480;52.370;9.748;2023-10-08T12:57:49;1.60;;;1.40;;
8887;SDS011;4480;52.370;9.748;2023-10-08T13:00:20;2.30;;;1.27;;
8887;SDS011;4480;52.370;9.748;2023-10-08T13:02:50;3.20;;;1.73;;
8887;SDS011;4480;52.370;9.748;2023-10-08T13:05:19;5.47;;;3.10;;
8887;SDS011;4480;52.370;9.748;2023-10-08T13:07:53;4.80;;;2.20;;
8887;SDS011;4480;52.370;9.748;2023-10-08T13:10:21;3.63;;;2.00;;
8887;SDS011;4480;52.370;9.748;2023-10-08T13:12:48;5.20;;;1.50;;
8887;SDS011;4480;52.370;9.748;2023-10-08T13:15:15;4.97;;;1.57;;
8887;SDS011;4480;52.370;9.748;2023-10-08T13:17:42;2.83;;;1.40;;
8887;SDS011;4480;52.370;9.748;2023-10-08T13:20:12;6.00;;;1.90;;
8887;SDS011;4480;52.370;9.748;2023-10-08T13:22:39;4.60;;;1.83;;
8887;SDS011;4480;52.370;9.748;2023-10-08T13:25:08;4.80;;;1.50;;
8887;SDS011;4480;52.370;9.748;2023-10-08T13:27:37;4.47;;;1.73;;
8887;SDS011;4480;52.370;9.748;2023-10-08T13:30:05;5.20;;;1.90;;
8887;SDS011;4480;52.370;9.748;2023-10-08T13:32:34;4.77;;;1.93;;
8887;SDS011;4480;52.370;9.748;2023-10-08T13:35:02;4.30;;;1.47;;
8887;SDS011;4480;52.370;9.748;2023-10-08T13:37:32;3.30;;;1.53;;
8887;SDS011;4480;52.370;9.748;2023-10-08T13:40:00;6.83;;;1.70;;
8887;SDS011;4480;52.370;9.748;2023-10-08T13:42:27;4.97;;;1.60;;
8887;SDS011;4480;52.370;9.748;2023-10-08T13:44:54;3.83;;;1.93;;
8887;SDS011;4480;52.370;9.748;2023-10-08T13:47:23;3.50;;;1.63;;
8887;SDS011;4480;52.370;9.748;2023-10-08T13:49:51;4.07;;;1.87;;
8887;SDS011;4480;52.370;9.748;2023-10-08T13:52:18;5.17;;;1.63;;
8887;SDS011;4480;52.370;9.748;2023-10-08T13:54:52;5.17;;;2.80;;
8887;SDS011;4480;52.370;9.748;2023-10-08T13:57:19;5.13;;;1.70;;
8887;SDS011;4480;52.370;9.748;2023-10-08T13:59:46;3.73;;;1.50;;
8887;SDS011;4480;52.370;9.748;2023-10-08T14:02:13;4.27;;;1.77;;
8887;SDS011;4480;52.370;9.748;2023-10-08T14:04:40;5.70;;;1.80;;
8887;SDS011;4480;52.370;9.748;2023-10-08T14:07:08;2.90;;;1.20;;
8887;SDS011;4480;52.370;9.748;2023-10-08T14:09:36;3.30;;;1.27;;
8887;SDS011;4480;52.370;9.748;2023-10-08T14:12:08;3.97;;;1.33;;
8887;SDS011;4480;52.370;9.748;2023-10-08T14:14:35;4.20;;;1.90;;
8887;SDS011;4480;52.370;9.748;2023-10-08T14:17:06;3.53;;;1.83;;
8887;SDS011;4480;52.370;9.748;2023-10-08T14:19:39;4.77;;;1.97;;
8887;SDS011;4480;52.370;9.748;2023-10-08T14:22:11;4.80;;;2.00;;
8887;SDS011;4480;52.370;9.748;2023-10-08T14:24:40;3.70;;;1.43;;
8887;SDS011;4480;52.370;9.748;2023-10-08T14:27:08;2.60;;;1.00;;
8887;SDS011;4480;52.370;9.748;2023-10-08T14:29:36;5.90;;;1.63;;
8887;SDS011;4480;52.370;9.748;2023-10-08T14:32:05;2.20;;;1.17;;
8887;SDS011;4480;52.370;9.748;2023-10-08T14:34:34;4.73;;;1.90;;
8887;SDS011;4480;52.370;9.748;2023-10-08T14:37:18;8.20;;;1.30;;
8887;SDS011;4480;52.370;9.748;2023-10-08T14:40:02;4.77;;;1.40;;
8887;SDS011;4480;52.370;9.748;2023-10-08T14:42:48;6.37;;;1.47;;
8887;SDS011;4480;52.370;9.748;2023-10-08T14:45:21;3.17;;;1.27;;
8887;SDS011;4480;52.370;9.748;2023-10-08T14:47:51;2.83;;;1.90;;
8887;SDS011;4480;52.370;9.748;2023-10-08T14:50:19;3.30;;;1.87;;
8887;SDS011;4480;52.370;9.748;2023-10-08T14:52:47;4.10;;;1.90;;
8887;SDS011;4480;52.370;9.748;2023-10-08T14:55:14;9.03;;;2.00;;
8887;SDS011;4480;52.370;9.748;2023-10-08T14:57:41;2.67;;;1.17;;
8887;SDS011;4480;52.370;9.748;2023-10-08T15:00:10;4.77;;;1.50;;
8887;SDS011;4480;52.370;9.748;2023-10-08T15:02:37;7.23;;;2.40;;
8887;SDS011;4480;52.370;9.748;2023-10-08T15:05:04;3.53;;;2.00;;
8887;SDS011;4480;52.370;9.748;2023-10-08T15:07:32;5.33;;;1.50;;
8887;SDS011;4480;52.370;9.748;2023-10-08T15:09:59;2.10;;;1.50;;
8887;SDS011;4480;52.370;9.748;2023-10-08T15:12:26;7.17;;;2.13;;
8887;SDS011;4480;52.370;9.748;2023-10-08T15:14:53;3.70;;;2.20;;
8887;SDS011;4480;52.370;9.748;2023-10-08T15:17:21;4.80;;;1.33;;
8887;SDS011;4480;52.370;9.748;2023-10-08T15:19:48;4.40;;;1.80;;
8887;SDS011;4480;52.370;9.748;2023-10-08T15:22:16;3.40;;;1.77;;
8887;SDS011;4480;52.370;9.748;2023-10-08T15:24:43;4.47;;;1.60;;
8887;SDS011;4480;52.370;9.748;2023-10-08T15:27:10;3.20;;;1.90;;
8887;SDS011;4480;52.370;9.748;2023-10-08T15:29:37;3.40;;;1.30;;
8887;SDS011;4480;52.370;9.748;2023-10-08T15:32:04;5.10;;;1.63;;
8887;SDS011;4480;52.370;9.748;2023-10-08T15:34:32;4.30;;;2.87;;
8887;SDS011;4480;52.370;9.748;2023-10-08T15:36:59;5.37;;;2.00;;
8887;SDS011;4480;52.370;9.748;2023-10-08T15:39:25;3.57;;;1.90;;
8887;SDS011;4480;52.370;9.748;2023-10-08T15:41:53;5.07;;;1.40;;
8887;SDS011;4480;52.370;9.748;2023-10-08T15:44:20;8.20;;;1.67;;
8887;SDS011;4480;52.370;9.748;2023-10-08T15:46:47;3.40;;;1.37;;